Time;durP1;ratioP1;P1;durP2;ratioP2;P2;SDS_P1;SDS_P2;PMS_P1;PMS_P2;Temp;Humidity;BMP_temperature;BMP_pressure;BME280_temperature;BME280_humidity;BME280_pressure;Samples;Min_cycle;Max_cycle;Signal;HPM_P1;HPM_P2
2023/02/09 09:07:07;;;;;;;6.60;2.30;;;4.00;99.90;;;;;;4978212;23;20338;-71
2023/02/09 09:09:34;;;;;;;5.43;2.53;;;4.10;99.90;;;;;;4954110;29;20215;-70
2023/02/09 09:12:01;;;;;;;7.10;3.23;;;4.10;99.90;;;;;;4954845;28;20239;-71
2023/02/09 09:14:27;;;;;;;5.97;2.83;;;4.10;99.90;;;;;;4958072;29;20219;-71
2023/02/09 09:16:57;;;;;;;8.77;2.80;;;4.00;99.90;;;;;;4958182;29;20211;-71
2023/02/09 09:19:24;;;;;;;5.97;3.00;;;4.10;99.90;;;;;;4958205;29;20215;-71
2023/02/09 09:21:51;;;;;;;7.97;3.20;;;4.20;99.90;;;;;;4957801;29;20737;-71
2023/02/09 09:24:20;;;;;;;7.00;3.10;;;4.10;99.90;;;;;;4957950;29;20211;-72
2023/02/09 09:26:46;;;;;;;12.53;3.67;;;4.20;99.90;;;;;;4957922;29;20236;-72
2023/02/09 09:29:13;;;;;;;10.23;3.13;;;4.40;99.90;;;;;;4948521;28;20219;-72
2023/02/09 09:31:40;;;;;;;7.70;3.63;;;4.50;99.90;;;;;;4950626;29;20234;-73
2023/02/09 09:34:07;;;;;;;8.00;2.80;;;4.60;99.90;;;;;;4957141;29;20203;-73
2023/02/09 09:36:33;;;;;;;6.67;3.00;;;4.50;99.90;;;;;;4938339;29;20209;-73
2023/02/09 09:39:01;;;;;;;7.10;3.00;;;4.40;99.90;;;;;;4938226;29;20680;-73
2023/02/09 09:41:33;;;;;;;8.50;2.80;;;4.30;99.90;;;;;;4937967;29;20285;-72
2023/02/09 09:44:01;;;;;;;9.07;3.60;;;4.20;99.90;;;;;;4938249;29;20209;-73
2023/02/09 09:46:35;;;;;;;7.83;2.80;;;4.30;99.90;;;;;;4940228;29;20232;-70
2023/02/09 09:49:03;;;;;;;7.67;2.90;;;4.40;99.90;;;;;;4947363;29;20220;-73
2023/02/09 09:51:37;;;;;;;9.27;3.47;;;4.60;99.90;;;;;;4937782;29;20229;-73
2023/02/09 09:54:12;;;;;;;9.33;3.37;;;4.90;99.90;;;;;;4937611;29;20207;-74
2023/02/09 09:56:41;;;;;;;11.13;3.33;;;4.70;99.90;;;;;;4938027;29;20204;-73
2023/02/09 09:59:16;;;;;;;6.27;3.23;;;4.80;99.90;;;;;;4937011;29;20235;-73
2023/02/09 10:01:43;;;;;;;7.20;3.30;;;5.00;99.90;;;;;;4938190;29;20639;-71
2023/02/09 10:04:13;;;;;;;7.33;3.57;;;4.80;99.90;;;;;;4937977;29;20219;-73
2023/02/09 10:06:43;;;;;;;7.23;3.27;;;4.80;99.90;;;;;;4937280;29;20244;-71
2023/02/09 10:09:22;;;;;;;8.13;3.83;;;5.00;99.90;;;;;;4937250;29;20209;-74
2023/02/09 10:12:02;;;;;;;10.43;4.00;;;5.00;99.90;;;;;;4937634;29;20224;-72
2023/02/09 10:14:30;;;;;;;10.50;3.43;;;5.10;99.90;;;;;;4937688;29;20215;-71
2023/02/09 10:16:56;;;;;;;7.57;3.53;;;5.10;99.90;;;;;;4934888;29;20209;-71
2023/02/09 10:19:26;;;;;;;8.30;3.67;;;5.00;99.90;;;;;;4935263;29;20225;-71
2023/02/09 10:21:54;;;;;;;7.23;3.13;;;5.10;99.90;;;;;;4936317;29;20225;-69
2023/02/09 10:24:23;;;;;;;6.43;3.17;;;5.10;99.90;;;;;;4948728;29;20204;-70
2023/02/09 10:27:12;;;;;;;7.90;3.83;;;5.20;99.90;;;;;;4941960;29;20707;-70
2023/02/09 10:29:39;;;;;;;10.40;4.00;;;5.40;99.90;;;;;;4935638;29;20992;-70
2023/02/09 10:32:15;;;;;;;6.60;3.40;;;5.40;99.90;;;;;;4934877;29;20239;-71
2023/02/09 10:34:46;;;;;;;10.70;3.93;;;5.30;99.90;;;;;;4935834;29;20686;-69
2023/02/09 10:37:20;;;;;;;8.03;3.70;;;5.10;99.90;;;;;;4941251;28;20687;-73
2023/02/09 10:39:54;;;;;;;8.93;3.87;;;5.10;99.90;;;;;;4935779;29;20211;-69
2023/02/09 10:42:27;;;;;;;9.73;3.70;;;5.00;99.90;;;;;;4936165;29;20238;-69
2023/02/09 10:44:56;;;;;;;9.07;3.83;;;5.00;99.90;;;;;;4935708;29;20205;-69
2023/02/09 10:47:29;;;;;;;6.40;3.37;;;5.10;99.90;;;;;;4935264;29;20237;-71
2023/02/09 10:50:00;;;;;;;8.77;3.40;;;5.00;99.90;;;;;;4935804;29;20567;-70
2023/02/09 10:52:33;;;;;;;8.30;3.93;;;5.10;99.90;;;;;;4936043;29;20239;-72
2023/02/09 10:55:04;;;;;;;8.03;3.60;;;5.20;99.90;;;;;;4935736;29;20213;-70
2023/02/09 10:57:35;;;;;;;6.47;3.60;;;5.20;99.90;;;;;;4935914;29;20217;-70
2023/02/09 11:00:25;;;;;;;10.23;4.20;;;5.30;99.90;;;;;;4935783;29;20212;-72
2023/02/09 11:02:55;;;;;;;10.23;4.30;;;5.40;99.90;;;;;;4935328;29;20560;-72
2023/02/09 11:05:28;;;;;;;12.27;4.80;;;5.40;99.90;;;;;;4935425;29;20244;-71
2023/02/09 11:08:00;;;;;;;9.27;4.27;;;5.50;99.90;;;;;;4935056;29;20273;-69
2023/02/09 11:10:29;;;;;;;11.50;4.03;;;5.60;99.90;;;;;;4935457;29;20211;-72
2023/02/09 11:12:58;;;;;;;8.60;4.10;;;5.80;99.90;;;;;;4935347;29;20217;-70
2023/02/09 11:15:29;;;;;;;12.77;4.43;;;6.00;99.90;;;;;;4934914;29;20693;-71
2023/02/09 11:18:06;;;;;;;8.60;3.80;;;6.00;99.90;;;;;;4935104;29;20208;-71
2023/02/09 11:20:36;;;;;;;10.70;3.80;;;6.10;99.90;;;;;;4934818;29;20667;-71
2023/02/09 11:23:22;;;;;;;9.40;4.33;;;6.10;99.90;;;;;;4937314;29;20693;-71
2023/02/09 11:25:58;;;;;;;8.53;3.93;;;6.20;99.90;;;;;;4954447;29;20240;-72
2023/02/09 11:28:36;;;;;;;9.07;4.20;;;6.20;99.90;;;;;;4941003;29;20201;-71
2023/02/09 11:31:39;;;;;;;11.13;3.93;;;6.20;99.90;;;;;;4934594;29;20236;-69
2023/02/09 11:34:18;;;;;;;9.00;4.73;;;6.50;99.90;;;;;;4934781;29;20686;-69
2023/02/09 11:36:56;;;;;;;10.80;4.80;;;6.50;99.90;;;;;;4934348;29;20211;-71
2023/02/09 11:39:31;;;;;;;10.77;4.27;;;6.70;99.90;;;;;;4934711;29;20201;-70
2023/02/09 11:44:55;;;;;;;10.03;4.40;;;6.80;99.90;;;;;;4934678;29;20208;-68
2023/02/09 11:47:27;;;;;;;9.97;4.20;;;6.80;99.90;;;;;;4934749;29;20239;-70
2023/02/09 11:49:57;;;;;;;10.63;4.60;;;6.80;99.90;;;;;;4935081;29;20220;-69
2023/02/09 11:52:29;;;;;;;10.50;4.77;;;6.70;99.90;;;;;;4935226;29;20256;-71
2023/02/09 11:55:01;;;;;;;9.17;4.33;;;6.70;99.90;;;;;;4932428;29;20220;-71
2023/02/09 11:57:36;;;;;;;11.57;5.70;;;6.80;99.90;;;;;;4937518;29;20211;-71
2023/02/09 12:00:12;;;;;;;11.93;5.37;;;6.70;99.90;;;;;;4935546;29;20213;-72
2023/02/09 12:02:46;;;;;;;10.70;5.10;;;6.80;99.90;;;;;;4934671;29;20267;-73
2023/02/09 12:05:17;;;;;;;10.43;4.73;;;6.90;99.90;;;;;;4933966;29;20690;-73
2023/02/09 12:07:58;;;;;;;12.40;5.67;;;7.00;99.90;;;;;;4934027;29;20232;-73
2023/02/09 12:10:30;;;;;;;11.77;5.20;;;6.90;99.90;;;;;;4934188;29;20213;-73
2023/02/09 12:13:02;;;;;;;11.57;4.63;;;7.00;99.90;;;;;;4934323;29;20216;-73
2023/02/09 12:15:39;;;;;;;12.50;5.93;;;7.10;99.90;;;;;;4934517;29;20208;-72
2023/02/09 12:18:11;;;;;;;13.27;6.17;;;7.10;99.90;;;;;;4934518;29;20212;-72
2023/02/09 12:20:52;;;;;;;13.67;5.90;;;7.10;99.90;;;;;;4934530;29;20653;-72
2023/02/09 12:23:26;;;;;;;14.27;5.33;;;7.00;99.90;;;;;;4934426;29;20707;-73
2023/02/09 12:25:58;;;;;;;14.27;5.20;;;7.10;99.90;;;;;;4933939;29;20204;-73
2023/02/09 12:28:44;;;;;;;14.33;5.87;;;7.20;99.90;;;;;;4934365;29;20567;-72
2023/02/09 12:31:18;;;;;;;11.27;5.40;;;7.20;99.90;;;;;;4934042;29;20229;-72
2023/02/09 12:34:10;;;;;;;12.83;5.63;;;7.20;99.90;;;;;;4934165;29;20639;-71
2023/02/09 12:36:37;;;;;;;14.80;6.17;;;7.50;99.90;;;;;;4934206;29;20209;-72
2023/02/09 12:39:22;;;;;;;12.17;6.03;;;7.50;99.90;;;;;;4934355;29;20303;-73
2023/02/09 12:42:26;;;;;;;13.60;6.00;;;7.60;99.90;;;;;;4934425;29;20235;-72
2023/02/09 12:44:58;;;;;;;14.63;6.43;;;7.80;99.90;;;;;;4934279;29;20208;-72
2023/02/09 12:47:55;;;;;;;13.63;6.23;;;7.80;99.90;;;;;;4936844;29;20249;-72
2023/02/09 12:50:31;;;;;;;14.57;5.97;;;7.90;99.90;;;;;;4938040;29;20209;-73
2023/02/09 12:53:34;;;;;;;13.87;6.27;;;8.10;99.90;;;;;;4938027;29;20220;-71
2023/02/09 12:56:05;;;;;;;13.33;5.93;;;8.10;99.90;;;;;;4937190;29;20683;-73
2023/02/09 12:58:37;;;;;;;12.93;5.60;;;7.90;99.90;;;;;;4937551;29;20231;-72
2023/02/09 13:01:05;;;;;;;13.27;5.43;;;8.00;99.90;;;;;;4941943;29;20691;-71
2023/02/09 13:03:42;;;;;;;14.87;6.63;;;8.20;99.90;;;;;;4946301;29;20663;-72
2023/02/09 13:06:26;;;;;;;15.87;6.97;;;8.20;99.90;;;;;;4943558;29;20216;-70
2023/02/09 13:08:57;;;;;;;16.53;6.40;;;8.20;99.90;;;;;;4943384;29;20544;-72
2023/02/09 13:11:29;;;;;;;11.77;6.27;;;8.20;99.90;;;;;;4944611;29;20224;-71
2023/02/09 13:14:02;;;;;;;11.57;5.83;;;8.30;99.90;;;;;;4944771;28;20205;-72
2023/02/09 13:16:53;;;;;;;13.33;6.63;;;8.30;99.90;;;;;;4945159;29;20268;-71
2023/02/09 13:19:45;;;;;;;15.33;6.40;;;8.30;99.90;;;;;;4935855;29;21004;-71
2023/02/09 13:22:25;;;;;;;15.23;6.77;;;8.40;99.90;;;;;;4930483;29;20594;-71
2023/02/09 13:24:57;;;;;;;12.77;6.47;;;8.40;99.90;;;;;;4936147;29;20197;-71
2023/02/09 13:27:25;;;;;;;13.57;6.13;;;8.40;99.90;;;;;;4935429;29;20243;-70
2023/02/09 13:29:54;;;;;;;13.10;6.33;;;8.10;99.90;;;;;;4936029;29;20197;-72
2023/02/09 13:32:36;;;;;;;15.47;6.70;;;8.10;99.90;;;;;;4935885;29;20247;-71
2023/02/09 13:35:15;;;;;;;10.70;6.00;;;8.00;99.90;;;;;;4938133;29;20201;-73
2023/02/09 13:37:46;;;;;;;11.07;5.97;;;7.90;99.90;;;;;;4944128;28;20204;-72
2023/02/09 13:40:17;;;;;;;13.50;6.50;;;8.00;99.90;;;;;;4945095;29;20212;-72
2023/02/09 13:42:56;;;;;;;11.30;6.03;;;8.00;99.90;;;;;;4943875;29;20257;-71
2023/02/09 13:45:25;;;;;;;15.00;7.53;;;7.80;99.90;;;;;;4944239;29;20205;-72
2023/02/09 13:47:52;;;;;;;11.80;6.30;;;7.90;99.90;;;;;;4944429;29;20695;-72
2023/02/09 13:50:22;;;;;;;12.30;6.80;;;8.00;99.90;;;;;;4944874;29;20298;-72
2023/02/09 13:52:50;;;;;;;13.83;6.43;;;7.90;99.90;;;;;;4947095;29;20231;-73
2023/02/09 13:55:19;;;;;;;13.13;6.63;;;7.90;99.90;;;;;;4937409;29;20287;-72
2023/02/09 13:57:52;;;;;;;11.50;6.33;;;7.80;99.90;;;;;;4938013;29;20209;-71
2023/02/09 14:00:25;;;;;;;15.90;6.73;;;7.80;99.90;;;;;;4946771;29;20205;-70
2023/02/09 14:02:55;;;;;;;12.13;6.37;;;7.90;99.90;;;;;;4937336;29;20255;-70
2023/02/09 14:05:42;;;;;;;22.07;6.53;;;7.90;99.90;;;;;;4937894;29;20225;-69
2023/02/09 14:08:09;;;;;;;13.03;6.67;;;8.00;99.90;;;;;;4937516;29;20236;-70
2023/02/09 14:10:36;;;;;;;13.03;6.73;;;7.90;99.90;;;;;;4942948;29;20196;-71
2023/02/09 14:13:07;;;;;;;14.40;6.43;;;7.80;99.90;;;;;;4944640;29;20216;-73
2023/02/09 14:18:42;;;;;;;13.93;6.63;;;7.60;99.90;;;;;;4934975;29;20219;-70
2023/02/09 14:21:28;;;;;;;12.83;6.53;;;7.50;99.90;;;;;;4955473;28;20232;-69
2023/02/09 14:24:17;;;;;;;15.33;6.50;;;7.40;99.90;;;;;;4936133;29;20728;-70
2023/02/09 14:26:48;;;;;;;16.70;6.80;;;7.50;99.90;;;;;;4936987;29;20228;-71
2023/02/09 14:29:18;;;;;;;17.90;6.80;;;7.60;99.90;;;;;;4937454;29;20209;-70
2023/02/09 14:31:48;;;;;;;13.37;6.17;;;7.50;99.90;;;;;;4936133;29;20232;-70
2023/02/09 14:34:36;;;;;;;16.17;7.20;;;7.50;99.90;;;;;;4937169;29;20211;-70
2023/02/09 14:37:28;;;;;;;15.03;7.23;;;7.50;99.90;;;;;;4933808;29;20573;-71
2023/02/09 14:39:59;;;;;;;14.03;6.73;;;7.50;99.90;;;;;;4937423;29;20216;-71
2023/02/09 14:42:26;;;;;;;13.50;6.57;;;7.50;99.90;;;;;;4937073;29;20229;-73
2023/02/09 14:44:56;;;;;;;13.00;6.57;;;7.40;99.90;;;;;;4937176;29;20211;-72
2023/02/09 14:47:41;;;;;;;15.47;6.90;;;7.50;99.90;;;;;;4936978;29;20263;-71
2023/02/09 14:50:11;;;;;;;16.03;7.23;;;7.40;99.90;;;;;;4937284;29;20209;-73
2023/02/09 14:52:40;;;;;;;14.30;6.97;;;7.40;99.90;;;;;;4936987;29;20242;-73
2023/02/09 14:55:14;;;;;;;15.93;7.40;;;7.40;99.90;;;;;;4936877;29;20219;-72
2023/02/09 14:57:41;;;;;;;12.07;6.67;;;7.30;99.90;;;;;;4937192;29;20204;-71
2023/02/09 15:00:17;;;;;;;13.70;6.33;;;7.30;99.90;;;;;;4936953;29;20220;-72
2023/02/09 15:02:44;;;;;;;13.87;6.97;;;7.30;99.90;;;;;;4964729;23;20235;-68
2023/02/09 15:05:11;;;;;;;16.33;7.10;;;7.30;99.90;;;;;;4956090;29;20212;-68
2023/02/09 15:07:43;;;;;;;13.70;7.30;;;7.40;99.90;;;;;;4955811;28;20281;-68
2023/02/09 15:10:23;;;;;;;18.03;7.53;;;7.30;99.90;;;;;;4954743;28;20667;-68
2023/02/09 15:12:50;;;;;;;13.77;6.80;;;7.20;99.90;;;;;;4955686;29;20231;-68
2023/02/09 15:15:19;;;;;;;14.90;6.90;;;7.00;99.90;;;;;;4955917;29;20559;-69
2023/02/09 15:17:46;;;;;;;17.43;7.00;;;7.00;99.90;;;;;;4955872;29;20208;-68
2023/02/09 15:20:15;;;;;;;13.63;7.00;;;7.10;99.90;;;;;;4955661;29;20210;-71
2023/02/09 15:22:43;;;;;;;15.10;6.90;;;7.10;99.90;;;;;;4955228;29;20228;-69
2023/02/09 15:25:13;;;;;;;15.77;7.60;;;7.10;99.90;;;;;;4955386;29;20214;-69
2023/02/09 15:27:45;;;;;;;19.07;7.73;;;7.20;99.90;;;;;;4955634;28;20283;-71
2023/02/09 15:30:14;;;;;;;20.03;7.07;;;7.30;99.90;;;;;;4955577;29;20219;-69
2023/02/09 15:32:49;;;;;;;17.13;7.03;;;7.10;99.90;;;;;;5090560;27;20625;-68
2023/02/09 15:35:18;;;;;;;16.00;7.23;;;7.00;99.90;;;;;;5090301;28;20211;-70
2023/02/09 15:37:48;;;;;;;17.50;7.47;;;6.90;99.90;;;;;;5089904;28;20203;-68
2023/02/09 15:47:47;;;;;;;14.97;7.13;;;6.90;99.90;;;;;;5090136;28;20205;-69
2023/02/09 15:48:50;;;;;;;16.93;7.57;;;6.80;99.90;;;;;;5053487;28;20195;-71
2023/02/09 15:51:17;;;;;;;18.10;7.97;;;6.90;99.90;;;;;;5089740;28;20238;-71
2023/02/09 15:53:45;;;;;;;19.97;8.00;;;6.90;99.90;;;;;;5089943;28;20207;-72
2023/02/09 15:56:13;;;;;;;18.80;7.80;;;6.90;99.90;;;;;;5089564;28;20205;-71
2023/02/09 15:58:43;;;;;;;17.50;8.50;;;7.10;99.90;;;;;;5089484;28;20586;-71
2023/02/09 16:01:13;;;;;;;17.07;8.30;;;7.00;99.90;;;;;;5089163;28;20280;-71
2023/02/09 16:03:40;;;;;;;16.27;7.43;;;7.00;99.90;;;;;;5089561;28;20207;-71
2023/02/09 16:06:14;;;;;;;16.30;7.23;;;7.10;99.90;;;;;;5089613;28;20214;-71
2023/02/09 16:08:43;;;;;;;15.33;7.00;;;7.00;99.90;;;;;;5089666;28;20206;-67
2023/02/09 16:11:16;;;;;;;13.97;7.37;;;7.00;99.90;;;;;;5089331;28;20258;-69
2023/02/09 16:13:43;;;;;;;13.63;6.50;;;6.90;99.90;;;;;;5089619;28;20209;-66
2023/02/09 16:16:10;;;;;;;14.37;7.50;;;7.00;99.90;;;;;;5089590;28;20219;-66
2023/02/09 16:18:37;;;;;;;14.63;7.77;;;6.90;99.90;;;;;;5089131;28;20214;-66
2023/02/09 16:21:05;;;;;;;17.00;7.63;;;6.90;99.90;;;;;;5089227;28;20229;-67
2023/02/09 16:23:34;;;;;;;15.30;7.60;;;6.90;99.90;;;;;;5089394;28;20202;-66
2023/02/09 16:26:04;;;;;;;20.80;7.90;;;7.00;99.90;;;;;;5089461;28;20669;-66
2023/02/09 16:28:31;;;;;;;16.47;7.03;;;7.00;99.90;;;;;;5089057;28;20657;-68
2023/02/09 16:30:58;;;;;;;17.30;7.60;;;7.00;99.90;;;;;;5089053;28;20230;-68
2023/02/09 16:33:25;;;;;;;12.57;6.63;;;6.80;99.90;;;;;;5089344;28;20221;-68
2023/02/09 16:35:54;;;;;;;15.27;7.13;;;6.80;99.90;;;;;;5089139;28;20210;-68
2023/02/09 16:38:22;;;;;;;16.30;7.10;;;6.80;99.90;;;;;;5089510;28;20203;-72
2023/02/09 16:40:50;;;;;;;16.20;7.13;;;6.80;99.90;;;;;;5089267;28;20210;-72
2023/02/09 16:43:18;;;;;;;12.23;6.73;;;6.80;99.90;;;;;;5080485;28;20668;-69
2023/02/09 16:45:45;;;;;;;13.30;7.40;;;6.70;99.90;;;;;;5075534;28;20237;-69
2023/02/09 16:48:19;;;;;;;14.47;7.13;;;6.70;99.90;;;;;;5075455;28;20199;-71
2023/02/09 16:50:51;;;;;;;13.90;7.03;;;6.80;99.90;;;;;;5075344;28;20260;-69
2023/02/09 16:53:22;;;;;;;12.80;6.17;;;6.80;99.90;;;;;;5075469;28;20670;-72
2023/02/09 16:55:50;;;;;;;19.53;7.53;;;6.80;99.90;;;;;;5075426;28;20207;-72
2023/02/09 16:58:17;;;;;;;14.97;7.00;;;6.70;99.90;;;;;;5075166;28;20208;-68
2023/02/09 17:00:45;;;;;;;18.73;7.40;;;6.70;99.90;;;;;;5075177;28;20256;-71
2023/02/09 17:03:15;;;;;;;13.73;7.03;;;6.60;99.90;;;;;;5074927;28;20681;-72
2023/02/09 17:05:45;;;;;;;14.77;7.20;;;6.60;99.90;;;;;;5075101;28;20207;-70
2023/02/09 17:08:16;;;;;;;16.63;7.50;;;6.60;99.90;;;;;;5075311;28;20230;-68
2023/02/09 17:10:43;;;;;;;16.57;7.07;;;6.50;99.90;;;;;;5075089;28;20199;-71
2023/02/09 17:13:11;;;;;;;16.60;7.00;;;6.50;99.90;;;;;;5075129;28;20242;-69
2023/02/09 17:15:43;;;;;;;14.33;6.90;;;6.60;99.90;;;;;;5074897;28;20211;-69
2023/02/09 17:18:15;;;;;;;15.33;7.40;;;6.70;99.90;;;;;;5074978;28;20261;-71
2023/02/09 17:20:45;;;;;;;16.77;6.90;;;6.50;99.90;;;;;;5074774;28;20233;-69
2023/02/09 17:23:15;;;;;;;15.07;6.80;;;6.50;99.90;;;;;;5074986;28;20207;-70
2023/02/09 17:25:43;;;;;;;17.97;7.53;;;6.60;99.90;;;;;;5074686;28;20203;-71
2023/02/09 17:28:11;;;;;;;17.00;7.87;;;6.50;99.90;;;;;;5074601;28;20210;-72
2023/02/09 17:30:39;;;;;;;15.67;7.40;;;6.50;99.90;;;;;;5074525;28;20732;-72
2023/02/09 17:33:11;;;;;;;15.10;7.20;;;6.50;99.90;;;;;;5074597;28;20231;-72
2023/02/09 17:35:39;;;;;;;13.17;6.40;;;6.60;99.90;;;;;;5075059;28;20211;-71
2023/02/09 17:38:06;;;;;;;13.97;7.77;;;6.60;99.90;;;;;;5074772;28;20200;-72
2023/02/09 17:40:36;;;;;;;13.13;7.30;;;6.70;99.90;;;;;;5074299;28;20203;-72
2023/02/09 17:43:03;;;;;;;17.20;7.50;;;6.70;99.90;;;;;;5074613;28;20199;-68
2023/02/09 17:45:33;;;;;;;15.27;6.77;;;6.50;99.90;;;;;;5074396;28;20203;-69
2023/02/09 17:48:02;;;;;;;14.27;7.17;;;6.40;99.90;;;;;;5074446;28;20203;-68
2023/02/09 17:50:29;;;;;;;14.40;7.23;;;6.40;99.90;;;;;;5073984;28;20207;-69
2023/02/09 17:52:55;;;;;;;12.40;6.87;;;6.50;99.90;;;;;;5074012;28;20246;-69
2023/02/09 17:55:25;;;;;;;14.93;7.27;;;6.40;99.90;;;;;;5073144;28;20204;-68
2023/02/09 17:57:55;;;;;;;16.30;8.00;;;6.30;99.90;;;;;;5074418;28;20208;-73
2023/02/09 18:00:22;;;;;;;15.87;7.77;;;6.30;99.90;;;;;;5074202;28;20203;-69
2023/02/09 18:02:50;;;;;;;18.40;7.60;;;6.30;99.90;;;;;;5073793;28;20223;-69
2023/02/09 18:05:19;;;;;;;18.37;7.60;;;6.40;99.90;;;;;;5073933;28;20211;-69
2023/02/09 18:07:46;;;;;;;18.60;8.07;;;6.30;99.90;;;;;;5073534;28;20684;-68
2023/02/09 18:10:14;;;;;;;14.07;6.90;;;6.30;99.90;;;;;;5073884;28;20528;-70
2023/02/09 18:12:41;;;;;;;14.33;7.77;;;6.30;99.90;;;;;;5073654;28;20262;-69
2023/02/09 18:15:17;;;;;;;14.53;7.13;;;6.40;99.90;;;;;;5073879;28;20208;-66
2023/02/09 18:17:44;;;;;;;13.70;7.10;;;6.50;99.90;;;;;;5073401;28;20665;-66
2023/02/09 18:20:19;;;;;;;16.43;7.93;;;6.40;99.90;;;;;;5073362;28;20665;-70
2023/02/09 18:22:46;;;;;;;18.00;7.77;;;6.50;99.90;;;;;;5073935;28;20219;-70
2023/02/09 18:25:19;;;;;;;18.23;8.00;;;6.40;99.90;;;;;;5073608;28;20199;-67
2023/02/09 18:27:47;;;;;;;19.57;8.80;;;6.40;99.90;;;;;;5073518;28;20204;-67
2023/02/09 18:30:14;;;;;;;20.53;8.20;;;6.40;99.90;;;;;;5073616;28;20207;-70
2023/02/09 18:32:41;;;;;;;17.60;7.30;;;6.30;99.90;;;;;;5073211;28;20239;-66
2023/02/09 18:35:10;;;;;;;16.00;7.83;;;6.30;99.90;;;;;;5073590;28;20203;-67
2023/02/09 18:37:38;;;;;;;15.97;8.37;;;6.30;99.90;;;;;;5073311;28;20203;-66
2023/02/09 18:40:05;;;;;;;18.20;8.37;;;6.20;99.90;;;;;;5073384;28;20692;-67
2023/02/09 18:42:32;;;;;;;17.97;8.13;;;6.00;99.90;;;;;;5073529;28;20239;-68
2023/02/09 18:44:59;;;;;;;15.43;7.43;;;6.00;99.90;;;;;;5073204;28;20213;-68
2023/02/09 18:47:26;;;;;;;18.97;8.57;;;5.80;99.90;;;;;;5073621;28;20235;-66
2023/02/09 18:49:53;;;;;;;16.90;8.07;;;5.90;99.90;;;;;;5073433;28;20199;-69
2023/02/09 18:52:23;;;;;;;20.93;9.63;;;5.90;99.90;;;;;;5073146;28;20253;-67
2023/02/09 18:54:52;;;;;;;18.00;7.73;;;5.90;99.90;;;;;;5073096;28;20211;-68
2023/02/09 18:57:18;;;;;;;16.50;8.80;;;5.90;99.90;;;;;;5073296;28;20210;-67
2023/02/09 18:59:45;;;;;;;17.30;7.67;;;6.00;99.90;;;;;;5073104;28;20207;-69
2023/02/09 19:02:13;;;;;;;21.50;8.50;;;5.90;99.90;;;;;;5072890;28;20598;-68
2023/02/09 19:04:41;;;;;;;19.40;9.17;;;5.90;99.90;;;;;;5072816;28;20207;-66
2023/02/09 19:07:11;;;;;;;17.53;8.53;;;5.90;99.90;;;;;;5072912;28;20207;-67
2023/02/09 19:09:39;;;;;;;21.27;8.63;;;6.00;99.90;;;;;;5072882;28;20646;-67
2023/02/09 19:12:07;;;;;;;17.10;8.77;;;5.90;99.90;;;;;;5072388;28;20242;-67
2023/02/09 19:14:37;;;;;;;17.37;8.13;;;5.80;99.90;;;;;;5072923;28;20211;-69
2023/02/09 19:17:05;;;;;;;16.83;9.60;;;5.90;99.90;;;;;;5071929;28;20207;-71
2023/02/09 19:19:33;;;;;;;22.43;9.73;;;5.90;99.90;;;;;;5071417;28;20218;-69
2023/02/09 19:22:00;;;;;;;27.17;9.90;;;5.90;99.90;;;;;;5071609;28;20262;-67
2023/02/09 19:24:27;;;;;;;19.40;9.37;;;6.00;99.90;;;;;;5071953;28;20210;-67
2023/02/09 19:26:54;;;;;;;19.43;9.57;;;6.00;99.90;;;;;;5072360;28;20294;-71
2023/02/09 19:29:24;;;;;;;19.70;8.77;;;6.10;99.90;;;;;;5072319;28;20207;-67
2023/02/09 19:31:54;;;;;;;19.77;9.00;;;6.00;99.90;;;;;;5072121;28;20242;-71
2023/02/09 19:34:21;;;;;;;22.33;9.50;;;5.90;99.90;;;;;;5072385;28;20203;-67
2023/02/09 19:36:47;;;;;;;26.87;9.97;;;5.90;99.90;;;;;;5072083;28;20203;-71
2023/02/09 19:39:14;;;;;;;20.07;9.23;;;5.90;99.90;;;;;;5072273;28;20203;-67
2023/02/09 19:41:43;;;;;;;19.27;8.57;;;5.90;99.90;;;;;;5071871;28;20266;-68
2023/02/09 19:44:11;;;;;;;17.83;9.13;;;6.00;99.90;;;;;;5072536;28;20206;-67
2023/02/09 19:46:41;;;;;;;19.00;9.23;;;5.90;99.90;;;;;;5072508;28;20207;-67
2023/02/09 19:49:08;;;;;;;18.30;8.87;;;6.00;99.90;;;;;;5072497;28;20223;-70
2023/02/09 19:51:35;;;;;;;19.57;8.23;;;6.00;99.90;;;;;;5072007;28;20219;-68
2023/02/09 19:54:02;;;;;;;20.37;9.33;;;5.90;99.90;;;;;;5072059;28;20235;-67
2023/02/09 19:56:28;;;;;;;19.30;9.13;;;5.90;99.90;;;;;;5072116;28;20209;-67
2023/02/09 19:58:55;;;;;;;28.53;9.43;;;5.90;99.90;;;;;;5071808;28;20199;-69
